createdAt,value
2017-09-10T00:00:12.471Z,0
2017-09-10T00:01:24.409Z,0
2017-09-10T00:02:36.689Z,0
2017-09-10T00:03:48.934Z,0
2017-09-10T00:05:01.208Z,0
2017-09-10T00:06:13.492Z,0
2017-09-10T00:07:25.753Z,0
2017-09-10T00:08:38.070Z,0
2017-09-10T00:09:50.362Z,0
2017-09-10T00:11:02.661Z,0
2017-09-10T00:12:15.259Z,0
2017-09-10T00:13:27.224Z,0
2017-09-10T00:14:39.794Z,0
2017-09-10T00:15:52.365Z,0
2017-09-10T00:17:04.586Z,0
2017-09-10T00:18:17.132Z,0
2017-09-10T00:19:29.681Z,0
2017-09-10T00:20:42.272Z,0
2017-09-10T00:21:54.871Z,0
2017-09-10T00:23:07.519Z,0
2017-09-10T00:24:20.115Z,0
2017-09-10T00:25:32.355Z,0
2017-09-10T00:26:44.663Z,0
2017-09-10T00:27:57.294Z,0
2017-09-10T00:29:08.948Z,0
2017-09-10T00:30:21.537Z,0
2017-09-10T00:31:33.808Z,0
2017-09-10T00:32:46.429Z,0
2017-09-10T00:33:58.675Z,0
2017-09-10T00:35:11.277Z,0
2017-09-10T00:36:23.632Z,0
2017-09-10T00:37:36.237Z,0
2017-09-10T00:38:48.532Z,0
2017-09-10T00:40:00.788Z,0
2017-09-10T00:41:13.324Z,0
2017-09-10T00:42:25.900Z,0
2017-09-10T00:43:38.208Z,0
2017-09-10T00:44:51.042Z,0
2017-09-10T00:46:03.321Z,0
2017-09-10T00:47:15.987Z,0
2017-09-10T00:48:28.284Z,0
2017-09-10T00:49:40.543Z,0
2017-09-10T00:50:53.114Z,0
2017-09-10T00:52:05.663Z,0
2017-09-10T00:53:17.991Z,0
2017-09-10T00:54:30.592Z,0
2017-09-10T00:55:43.172Z,0
2017-09-10T00:56:55.692Z,0
2017-09-10T00:58:08.293Z,0
2017-09-10T00:59:20.909Z,0
2017-09-10T01:00:33.460Z,0
2017-09-10T01:01:46.099Z,0
2017-09-10T01:02:58.652Z,0
2017-09-10T01:04:10.972Z,0
2017-09-10T01:05:22.587Z,0
2017-09-10T01:06:34.863Z,0
2017-09-10T01:07:47.464Z,0
2017-09-10T01:08:59.424Z,0
2017-09-10T01:10:11.701Z,0
2017-09-10T01:11:24.296Z,0
2017-09-10T01:12:36.561Z,0
2017-09-10T01:13:49.137Z,0
2017-09-10T01:15:01.732Z,0
2017-09-10T01:16:14.003Z,0
2017-09-10T01:17:26.511Z,0
2017-09-10T01:18:38.495Z,0
2017-09-10T01:19:51.070Z,0
2017-09-10T01:21:03.631Z,0
2017-09-10T01:22:15.930Z,0
2017-09-10T01:23:28.498Z,0
2017-09-10T01:24:40.791Z,0
2017-09-10T01:25:53.048Z,0
2017-09-10T01:27:05.001Z,0
2017-09-10T01:28:17.579Z,0
2017-09-10T01:29:30.131Z,0
2017-09-10T01:30:42.421Z,0
2017-09-10T01:31:54.966Z,0
2017-09-10T01:33:07.545Z,0
2017-09-10T01:34:19.806Z,0
2017-09-10T01:35:31.781Z,0
2017-09-10T01:36:44.053Z,0
2017-09-10T01:37:56.369Z,0
2017-09-10T01:39:08.974Z,0
2017-09-10T01:40:21.578Z,0
2017-09-10T01:41:33.856Z,0
2017-09-10T01:42:46.101Z,0
2017-09-10T01:43:58.714Z,0
2017-09-10T01:45:10.673Z,0
2017-09-10T01:46:23.305Z,0
2017-09-10T01:47:35.915Z,0
2017-09-10T01:48:48.235Z,0
2017-09-10T01:50:01.079Z,0
2017-09-10T01:51:13.699Z,0
2017-09-10T01:52:25.995Z,0
2017-09-10T01:53:38.562Z,0
2017-09-10T01:54:50.809Z,0
2017-09-10T01:56:03.059Z,0
2017-09-10T01:57:15.674Z,0
2017-09-10T01:58:28.218Z,0
2017-09-10T01:59:39.892Z,0
2017-09-10T02:00:51.811Z,0
2017-09-10T02:02:03.732Z,0
2017-09-10T02:03:15.953Z,0
2017-09-10T02:04:28.540Z,0
2017-09-10T02:05:41.074Z,0
2017-09-10T02:06:53.029Z,0
2017-09-10T02:08:05.615Z,0
2017-09-10T02:09:18.212Z,0
2017-09-10T02:10:30.176Z,0
2017-09-10T02:11:42.798Z,0
2017-09-10T02:12:55.354Z,0
2017-09-10T02:14:07.314Z,0
2017-09-10T02:15:19.940Z,0
2017-09-10T02:16:32.491Z,0
2017-09-10T02:17:44.506Z,0
2017-09-10T02:18:57.102Z,0
2017-09-10T02:20:09.041Z,0
2017-09-10T02:21:21.288Z,0
2017-09-10T02:22:33.559Z,0
2017-09-10T02:23:45.846Z,0
2017-09-10T02:24:58.448Z,0
2017-09-10T02:26:10.098Z,0
2017-09-10T02:27:22.707Z,0
2017-09-10T02:28:34.962Z,0
2017-09-10T02:29:47.205Z,0
2017-09-10T02:30:59.728Z,0
2017-09-10T02:32:12.023Z,0
2017-09-10T02:33:24.003Z,0
2017-09-10T02:34:36.289Z,0
2017-09-10T02:35:48.535Z,0
2017-09-10T02:37:01.082Z,0
2017-09-10T02:38:13.313Z,0
2017-09-10T02:39:25.899Z,0
2017-09-10T02:40:38.473Z,0
2017-09-10T02:41:51.021Z,0
2017-09-10T02:43:02.984Z,0
2017-09-10T02:44:15.610Z,0
2017-09-10T02:45:28.156Z,0
2017-09-10T02:46:40.478Z,0
2017-09-10T02:47:53.091Z,0
2017-09-10T02:49:05.337Z,0
2017-09-10T02:50:17.659Z,0
2017-09-10T02:51:30.240Z,0
2017-09-10T02:52:42.902Z,0
2017-09-10T02:53:55.179Z,0
2017-09-10T02:55:07.158Z,0
2017-09-10T02:56:19.793Z,0
2017-09-10T02:57:32.387Z,0
2017-09-10T02:58:44.658Z,0
2017-09-10T02:59:57.266Z,0
2017-09-10T03:01:09.522Z,0
2017-09-10T03:02:22.147Z,0
2017-09-10T03:03:34.749Z,0
2017-09-10T03:04:47.305Z,0
2017-09-10T03:06:00.193Z,0
2017-09-10T03:07:12.779Z,0
2017-09-10T03:08:25.359Z,0
2017-09-10T03:09:38.006Z,0
2017-09-10T03:10:50.265Z,0
2017-09-10T03:12:02.607Z,0
2017-09-10T03:13:15.218Z,0
2017-09-10T03:14:27.481Z,0
2017-09-10T03:15:40.090Z,0
2017-09-10T03:16:52.728Z,0
2017-09-10T03:18:04.407Z,0
2017-09-10T03:19:16.370Z,0
2017-09-10T03:20:28.991Z,0
2017-09-10T03:21:41.250Z,0
2017-09-10T03:22:53.871Z,0
2017-09-10T03:24:06.211Z,0
2017-09-10T03:25:17.837Z,0
2017-09-10T03:26:29.833Z,0
2017-09-10T03:27:42.334Z,0
2017-09-10T03:28:54.399Z,0
2017-09-10T03:30:06.106Z,0
2017-09-10T03:31:17.740Z,0
2017-09-10T03:32:30.329Z,0
2017-09-10T03:33:42.258Z,0
2017-09-10T03:34:54.887Z,0
2017-09-10T03:36:07.160Z,0
2017-09-10T03:37:19.825Z,0
2017-09-10T03:38:32.414Z,0
2017-09-10T03:39:44.679Z,0
2017-09-10T03:40:57.211Z,0
2017-09-10T03:42:09.551Z,0
2017-09-10T03:43:22.122Z,0
2017-09-10T03:44:34.364Z,0
2017-09-10T03:45:46.593Z,0
2017-09-10T03:46:58.967Z,0
2017-09-10T03:48:10.941Z,0
2017-09-10T03:49:23.245Z,0
2017-09-10T03:50:35.817Z,0
2017-09-10T03:51:48.367Z,0
2017-09-10T03:53:00.706Z,0
2017-09-10T03:54:13.261Z,0
2017-09-10T03:55:25.529Z,0
2017-09-10T03:56:37.774Z,0
2017-09-10T03:57:49.414Z,0
2017-09-10T03:59:01.385Z,0
2017-09-10T04:00:13.912Z,0
2017-09-10T04:01:26.175Z,0
2017-09-10T04:02:38.430Z,0
2017-09-10T04:03:50.978Z,0
2017-09-10T04:05:03.265Z,4
2017-09-10T04:06:15.534Z,4
2017-09-10T04:07:27.822Z,4
2017-09-10T04:08:40.450Z,4
2017-09-10T04:09:53.069Z,4
2017-09-10T04:11:05.266Z,8
2017-09-10T04:12:17.494Z,4
2017-09-10T04:13:30.083Z,8
2017-09-10T04:14:42.663Z,8
2017-09-10T04:15:55.240Z,12
2017-09-10T04:17:07.205Z,16
2017-09-10T04:18:19.815Z,20
2017-09-10T04:19:32.404Z,20
2017-09-10T04:20:45.007Z,24
2017-09-10T04:21:57.038Z,28
2017-09-10T04:23:09.648Z,32
2017-09-10T04:24:22.172Z,40
2017-09-10T04:25:34.788Z,44
2017-09-10T04:26:47.033Z,52
2017-09-10T04:27:59.585Z,60
2017-09-10T04:29:11.907Z,68
2017-09-10T04:30:24.209Z,76
2017-09-10T04:31:36.797Z,84
2017-09-10T04:32:49.366Z,92
2017-09-10T04:34:01.929Z,100
2017-09-10T04:35:14.551Z,112
2017-09-10T04:36:26.847Z,124
2017-09-10T04:37:39.488Z,140
2017-09-10T04:38:52.124Z,156
2017-09-10T04:40:04.422Z,176
2017-09-10T04:41:16.408Z,200
2017-09-10T04:42:29.003Z,228
2017-09-10T04:43:41.484Z,252
2017-09-10T04:44:54.135Z,280
2017-09-10T04:46:05.782Z,296
2017-09-10T04:47:17.768Z,316
2017-09-10T04:48:30.022Z,352
2017-09-10T04:49:42.283Z,388
2017-09-10T04:50:54.872Z,440
2017-09-10T04:52:06.768Z,504
2017-09-10T04:53:18.988Z,576
2017-09-10T04:54:30.958Z,644
2017-09-10T04:55:43.230Z,728
2017-09-10T04:56:55.186Z,796
2017-09-10T04:58:07.827Z,856
2017-09-10T04:59:20.117Z,936
2017-09-10T05:00:32.662Z,1040
2017-09-10T05:01:44.957Z,1156
2017-09-10T05:02:57.578Z,1296
2017-09-10T05:04:10.105Z,1468
2017-09-10T05:05:22.369Z,1656
2017-09-10T05:06:35.017Z,1840
2017-09-10T05:07:47.636Z,1992
2017-09-10T05:09:00.235Z,2108
2017-09-10T05:10:12.802Z,2204
2017-09-10T05:11:24.759Z,2288
2017-09-10T05:12:37.079Z,2364
2017-09-10T05:13:49.681Z,2432
2017-09-10T05:15:01.613Z,2476
2017-09-10T05:16:13.910Z,2504
2017-09-10T05:17:26.188Z,2528
2017-09-10T05:18:38.803Z,2544
2017-09-10T05:19:51.146Z,2548
2017-09-10T05:21:03.089Z,2532
2017-09-10T05:22:15.308Z,2520
2017-09-10T05:23:27.529Z,2552
2017-09-10T05:24:39.175Z,2616
2017-09-10T05:25:51.811Z,2676
2017-09-10T05:27:04.377Z,2716
2017-09-10T05:28:16.988Z,2732
2017-09-10T05:29:29.270Z,2716
2017-09-10T05:30:41.560Z,2696
2017-09-10T05:31:53.831Z,2692
2017-09-10T05:33:05.800Z,2740
2017-09-10T05:34:18.057Z,2848
2017-09-10T05:35:30.696Z,3020
2017-09-10T05:36:42.730Z,3224
2017-09-10T05:37:55.302Z,3444
2017-09-10T05:39:07.537Z,3728
2017-09-10T05:40:19.811Z,4060
2017-09-10T05:41:32.040Z,4396
2017-09-10T05:42:44.247Z,4664
2017-09-10T05:43:56.813Z,4936
2017-09-10T05:45:09.088Z,5312
2017-09-10T05:46:21.702Z,5876
2017-09-10T05:47:34.293Z,6520
2017-09-10T05:48:46.538Z,7108
2017-09-10T05:49:58.836Z,7568
2017-09-10T05:51:11.471Z,7964
2017-09-10T05:52:24.001Z,8156
2017-09-10T05:53:35.970Z,8308
2017-09-10T05:54:48.268Z,8596
2017-09-10T05:56:00.862Z,8764
2017-09-10T05:57:12.794Z,8988
2017-09-10T05:58:25.077Z,9112
2017-09-10T05:59:37.365Z,9104
2017-09-10T06:00:49.994Z,9108
2017-09-10T06:02:01.932Z,9112
2017-09-10T06:03:14.474Z,9028
2017-09-10T06:04:26.436Z,8872
2017-09-10T06:05:38.663Z,8628
2017-09-10T06:06:50.978Z,8300
2017-09-10T06:08:03.553Z,7972
2017-09-10T06:09:16.144Z,7568
2017-09-10T06:10:28.760Z,7040
2017-09-10T06:11:40.999Z,6680
2017-09-10T06:12:52.682Z,6412
2017-09-10T06:14:05.299Z,6272
2017-09-10T06:15:17.893Z,6144
2017-09-10T06:16:30.523Z,6052
2017-09-10T06:17:42.820Z,6148
2017-09-10T06:18:55.435Z,6396
2017-09-10T06:20:07.130Z,6672
2017-09-10T06:21:19.676Z,6888
2017-09-10T06:22:31.659Z,7040
2017-09-10T06:23:43.948Z,7388
2017-09-10T06:24:56.588Z,7864
2017-09-10T06:26:08.544Z,8260
2017-09-10T06:27:21.130Z,8604
2017-09-10T06:28:33.094Z,8800
2017-09-10T06:29:45.669Z,8956
2017-09-10T06:30:58.255Z,9172
2017-09-10T06:32:10.217Z,9436
2017-09-10T06:33:22.164Z,9768
2017-09-10T06:34:34.765Z,10124
2017-09-10T06:35:47.350Z,10560
2017-09-10T06:36:59.995Z,11044
2017-09-10T06:38:12.534Z,11412
2017-09-10T06:39:25.162Z,11800
2017-09-10T06:40:37.431Z,12192
2017-09-10T06:41:50.021Z,12552
2017-09-10T06:43:02.334Z,12492
2017-09-10T06:44:14.949Z,12192
2017-09-10T06:45:27.215Z,11936
2017-09-10T06:46:39.190Z,11936
2017-09-10T06:47:51.499Z,11820
2017-09-10T06:49:03.803Z,11464
2017-09-10T06:50:16.418Z,11328
2017-09-10T06:51:28.393Z,11652
2017-09-10T06:52:40.409Z,12180
2017-09-10T06:53:52.928Z,12892
2017-09-10T06:55:04.916Z,14096
2017-09-10T06:56:17.515Z,14664
2017-09-10T06:57:30.115Z,14848
2017-09-10T06:58:42.739Z,15168
2017-09-10T06:59:55.634Z,15784
2017-09-10T07:01:06.695Z,16352
2017-09-10T07:02:19.275Z,15880
2017-09-10T07:03:31.879Z,15228
2017-09-10T07:04:44.164Z,14876
2017-09-10T07:05:56.485Z,14748
2017-09-10T07:07:08.748Z,14808
2017-09-10T07:08:21.324Z,14896
2017-09-10T07:09:33.658Z,14964
2017-09-10T07:10:46.242Z,15236
2017-09-10T07:11:58.868Z,15620
2017-09-10T07:13:11.158Z,16452
2017-09-10T07:14:23.732Z,16880
2017-09-10T07:15:36.342Z,17312
2017-09-10T07:16:48.895Z,17696
2017-09-10T07:18:01.491Z,17984
2017-09-10T07:19:13.768Z,18208
2017-09-10T07:20:26.399Z,18240
2017-09-10T07:21:38.979Z,17856
2017-09-10T07:22:51.248Z,17856
2017-09-10T07:24:02.530Z,18304
2017-09-10T07:25:14.850Z,18944
2017-09-10T07:26:27.486Z,19776
2017-09-10T07:27:40.041Z,20320
2017-09-10T07:28:52.626Z,20640
2017-09-10T07:30:05.253Z,21184
2017-09-10T07:31:17.193Z,22400
2017-09-10T07:32:29.489Z,22272
2017-09-10T07:33:42.034Z,21952
2017-09-10T07:34:54.565Z,22944
2017-09-10T07:36:06.551Z,23616
2017-09-10T07:37:18.527Z,21856
2017-09-10T07:38:30.474Z,21600
2017-09-10T07:39:42.724Z,20960
2017-09-10T07:40:54.994Z,20896
2017-09-10T07:42:07.310Z,20800
2017-09-10T07:43:19.685Z,20544
2017-09-10T07:44:31.947Z,20160
2017-09-10T07:45:44.233Z,19616
2017-09-10T07:46:56.497Z,19104
2017-09-10T07:48:09.106Z,18752
2017-09-10T07:49:21.077Z,18656
2017-09-10T07:50:33.630Z,18720
2017-09-10T07:51:45.918Z,18816
2017-09-10T07:52:57.892Z,18848
2017-09-10T07:54:10.177Z,18688
2017-09-10T07:55:22.737Z,18592
2017-09-10T07:56:35.031Z,18592
2017-09-10T07:57:47.277Z,18848
2017-09-10T07:58:59.744Z,19168
2017-09-10T08:00:12.391Z,19424
2017-09-10T08:01:24.051Z,19648
2017-09-10T08:02:36.680Z,19680
2017-09-10T08:03:48.916Z,19840
2017-09-10T08:05:01.200Z,19904
2017-09-10T08:06:13.492Z,19840
2017-09-10T08:07:25.713Z,19584
2017-09-10T08:08:38.075Z,18912
2017-09-10T08:09:50.304Z,18368
2017-09-10T08:11:02.655Z,17920
2017-09-10T08:12:14.912Z,17004
2017-09-10T08:13:26.872Z,16076
2017-09-10T08:14:38.811Z,15324
2017-09-10T08:15:51.043Z,14844
2017-09-10T08:17:03.352Z,14756
2017-09-10T08:18:15.898Z,14992
2017-09-10T08:19:28.102Z,15276
2017-09-10T08:20:40.375Z,16088
2017-09-10T08:21:52.347Z,16724
2017-09-10T08:23:04.685Z,18080
2017-09-10T08:24:17.302Z,18720
2017-09-10T08:25:29.548Z,19360
2017-09-10T08:26:41.770Z,19744
2017-09-10T08:27:53.124Z,19392
2017-09-10T08:29:05.435Z,18816
2017-09-10T08:30:18.008Z,17696
2017-09-10T08:31:30.232Z,17568
2017-09-10T08:32:42.513Z,18272
2017-09-10T08:33:54.724Z,17824
2017-09-10T08:35:06.989Z,18752
2017-09-10T08:36:18.632Z,19520
2017-09-10T08:37:31.185Z,20320
2017-09-10T08:38:43.177Z,19904
2017-09-10T08:39:55.501Z,18272
2017-09-10T08:41:07.465Z,15716
2017-09-10T08:42:19.438Z,13672
2017-09-10T08:43:31.707Z,12400
2017-09-10T08:44:44.330Z,9960
2017-09-10T08:45:56.559Z,9008
2017-09-10T08:47:08.530Z,9268
2017-09-10T08:48:20.848Z,10040
2017-09-10T08:49:32.814Z,9900
2017-09-10T08:50:45.064Z,9860
2017-09-10T08:51:57.701Z,9768
2017-09-10T08:53:09.650Z,10232
2017-09-10T08:54:21.846Z,10280
2017-09-10T08:55:34.188Z,9032
2017-09-10T08:56:46.395Z,8680
2017-09-10T08:57:58.704Z,8668
2017-09-10T08:59:11.301Z,9936
2017-09-10T09:00:23.849Z,11556
2017-09-10T09:01:36.230Z,11940
2017-09-10T09:02:47.894Z,14244
2017-09-10T09:04:00.514Z,14660
2017-09-10T09:05:12.789Z,14772
2017-09-10T09:06:25.390Z,15376
2017-09-10T09:07:37.401Z,15776
2017-09-10T09:08:49.669Z,13124
2017-09-10T09:10:01.961Z,10228
2017-09-10T09:11:14.574Z,8408
2017-09-10T09:12:26.786Z,8136
2017-09-10T09:13:39.080Z,9020
2017-09-10T09:14:51.326Z,8760
2017-09-10T09:16:03.695Z,8464
2017-09-10T09:17:15.971Z,9052
2017-09-10T09:18:27.906Z,8212
2017-09-10T09:19:40.451Z,8972
2017-09-10T09:20:52.800Z,11312
2017-09-10T09:22:04.774Z,9984
2017-09-10T09:23:16.438Z,9856
2017-09-10T09:24:28.958Z,10788
2017-09-10T09:25:41.528Z,9784
2017-09-10T09:26:53.778Z,8692
2017-09-10T09:28:05.756Z,10284
2017-09-10T09:29:18.065Z,9712
2017-09-10T09:30:29.736Z,9148
2017-09-10T09:31:41.983Z,8668
2017-09-10T09:32:54.229Z,7264
2017-09-10T09:34:06.190Z,8268
2017-09-10T09:35:18.476Z,9380
2017-09-10T09:36:31.016Z,8392
2017-09-10T09:37:43.564Z,8096
2017-09-10T09:38:55.850Z,7892
2017-09-10T09:40:08.102Z,8144
2017-09-10T09:41:20.025Z,8364
2017-09-10T09:42:32.626Z,9856
2017-09-10T09:43:45.257Z,10576
2017-09-10T09:44:56.892Z,12124
2017-09-10T09:46:09.461Z,14196
2017-09-10T09:47:21.682Z,13540
2017-09-10T09:48:33.302Z,13432
2017-09-10T09:49:45.570Z,15388
2017-09-10T09:50:57.844Z,17472
2017-09-10T09:52:10.415Z,16724
2017-09-10T09:53:22.685Z,16412
2017-09-10T09:54:34.699Z,14880
2017-09-10T09:55:47.332Z,14168
2017-09-10T09:57:00.009Z,13376
2017-09-10T09:58:12.624Z,13328
2017-09-10T09:59:25.239Z,12768
2017-09-10T10:00:37.840Z,11932
2017-09-10T10:01:50.449Z,11468
2017-09-10T10:03:02.959Z,13040
2017-09-10T10:04:15.183Z,13852
2017-09-10T10:05:27.710Z,13936
2017-09-10T10:06:40.220Z,11332
2017-09-10T10:07:52.207Z,9000
2017-09-10T10:09:03.504Z,7792
2017-09-10T10:10:15.768Z,7684
2017-09-10T10:11:27.706Z,8592
2017-09-10T10:12:40.222Z,8272
2017-09-10T10:13:52.194Z,8152
2017-09-10T10:15:04.157Z,8072
2017-09-10T10:16:15.815Z,8000
2017-09-10T10:17:28.154Z,7796
2017-09-10T10:18:40.749Z,10272
2017-09-10T10:19:52.714Z,10928
2017-09-10T10:21:04.314Z,11064
2017-09-10T10:22:16.300Z,10304
2017-09-10T10:23:27.596Z,11800
2017-09-10T10:24:39.552Z,10200
2017-09-10T10:25:51.836Z,9608
2017-09-10T10:27:04.419Z,9248
2017-09-10T10:28:16.378Z,9440
2017-09-10T10:29:28.681Z,10008
2017-09-10T10:30:41.569Z,10044
2017-09-10T10:31:53.501Z,9876
2017-09-10T10:33:05.773Z,9552
2017-09-10T10:34:18.086Z,9188
2017-09-10T10:35:30.652Z,9264
2017-09-10T10:36:42.624Z,10704
2017-09-10T10:37:54.543Z,25632
2017-09-10T10:39:06.571Z,11208
2017-09-10T10:40:19.210Z,45088
2017-09-10T10:41:31.841Z,15400
2017-09-10T10:42:44.137Z,11208
2017-09-10T10:43:56.715Z,34080
2017-09-10T10:45:08.342Z,37056
2017-09-10T10:46:20.595Z,15148
2017-09-10T10:47:32.646Z,41024
2017-09-10T10:48:45.256Z,27392
2017-09-10T10:49:57.605Z,28416
2017-09-10T10:51:09.901Z,19296
2017-09-10T10:52:22.464Z,35072
2017-09-10T10:53:35.092Z,53344
2017-09-10T10:54:47.084Z,46560
2017-09-10T10:55:59.664Z,33664
2017-09-10T10:57:11.322Z,19008
2017-09-10T10:58:23.569Z,12652
2017-09-10T10:59:35.496Z,11260
2017-09-10T11:00:47.762Z,10848
2017-09-10T11:02:00.114Z,10928
2017-09-10T11:03:12.413Z,11236
2017-09-10T11:04:25.048Z,11560
2017-09-10T11:05:37.312Z,12280
2017-09-10T11:06:49.545Z,13600
2017-09-10T11:08:02.217Z,15084
2017-09-10T11:09:14.783Z,15408
2017-09-10T11:10:27.079Z,15088
2017-09-10T11:11:39.349Z,14796
2017-09-10T11:12:51.909Z,14872
2017-09-10T11:14:04.432Z,14900
2017-09-10T11:15:17.009Z,14256
2017-09-10T11:16:29.241Z,13424
2017-09-10T11:17:40.875Z,12576
2017-09-10T11:18:52.844Z,11992
2017-09-10T11:20:05.142Z,11228
2017-09-10T11:21:17.469Z,11360
2017-09-10T11:22:30.161Z,11664
2017-09-10T11:23:42.804Z,12188
2017-09-10T11:24:55.428Z,14004
2017-09-10T11:26:08.035Z,14028
2017-09-10T11:27:20.664Z,14524
2017-09-10T11:28:32.592Z,15692
2017-09-10T11:29:44.792Z,16148
2017-09-10T11:30:56.806Z,17472
2017-09-10T11:32:08.476Z,17120
2017-09-10T11:33:21.093Z,22880
2017-09-10T11:34:33.688Z,38752
2017-09-10T11:35:46.214Z,43520
2017-09-10T11:36:58.848Z,60896
2017-09-10T11:38:10.826Z,62688
2017-09-10T11:39:23.122Z,42880
2017-09-10T11:40:35.395Z,15540
2017-09-10T11:41:47.113Z,12468
2017-09-10T11:42:59.384Z,10424
2017-09-10T11:44:11.981Z,9108
2017-09-10T11:45:24.250Z,9152
2017-09-10T11:46:36.848Z,9528
2017-09-10T11:47:49.422Z,9408
2017-09-10T11:49:01.395Z,8944
2017-09-10T11:50:14.008Z,9136
2017-09-10T11:51:26.339Z,10004
2017-09-10T11:52:38.641Z,10908
2017-09-10T11:53:50.643Z,12460
2017-09-10T11:55:02.644Z,18048
2017-09-10T11:56:14.636Z,18528
2017-09-10T11:57:26.930Z,17224
2017-09-10T11:58:39.508Z,16876
2017-09-10T11:59:51.727Z,15172
2017-09-10T12:01:03.969Z,14096
2017-09-10T12:02:16.320Z,13536
2017-09-10T12:03:28.921Z,13208
2017-09-10T12:04:40.578Z,12824
2017-09-10T12:05:52.876Z,12772
2017-09-10T12:07:05.475Z,13752
2017-09-10T12:08:18.159Z,16268
2017-09-10T12:09:30.813Z,17140
2017-09-10T12:10:43.315Z,17280
2017-09-10T12:11:55.596Z,16956
2017-09-10T12:13:07.585Z,16808
2017-09-10T12:14:20.283Z,19584
2017-09-10T12:15:32.591Z,21344
2017-09-10T12:16:45.187Z,21344
2017-09-10T12:17:57.133Z,20576
2017-09-10T12:19:09.429Z,20832
2017-09-10T12:20:21.399Z,22592
2017-09-10T12:21:33.382Z,20832
2017-09-10T12:22:45.072Z,18496
2017-09-10T12:23:57.402Z,16656
2017-09-10T12:25:09.681Z,15508
2017-09-10T12:26:21.958Z,15080
2017-09-10T12:27:34.571Z,17504
2017-09-10T12:28:46.249Z,19584
2017-09-10T12:29:58.788Z,20832
2017-09-10T12:31:11.388Z,19072
2017-09-10T12:32:23.649Z,18176
2017-09-10T12:33:36.271Z,19392
2017-09-10T12:34:48.854Z,19968
2017-09-10T12:36:01.442Z,19680
2017-09-10T12:37:12.767Z,20352
2017-09-10T12:38:25.033Z,19264
2017-09-10T12:39:37.357Z,17984
2017-09-10T12:40:49.575Z,17536
2017-09-10T12:42:01.851Z,16420
2017-09-10T12:43:14.462Z,15888
2017-09-10T12:44:26.751Z,15412
2017-09-10T12:45:38.989Z,16096
2017-09-10T12:46:51.557Z,16380
2017-09-10T12:48:04.156Z,15584
2017-09-10T12:49:15.822Z,16308
2017-09-10T12:50:28.397Z,18400
2017-09-10T12:51:40.690Z,20224
2017-09-10T12:52:53.289Z,20960
2017-09-10T12:54:05.281Z,21696
2017-09-10T12:55:17.890Z,20928
2017-09-10T12:56:30.247Z,19008
2017-09-10T12:57:42.540Z,17184
2017-09-10T12:58:54.819Z,14852
2017-09-10T13:00:06.738Z,13876
2017-09-10T13:01:19.047Z,12684
2017-09-10T13:02:31.675Z,13016
2017-09-10T13:03:44.292Z,14104
2017-09-10T13:04:56.919Z,13428
2017-09-10T13:06:09.507Z,12980
2017-09-10T13:07:22.137Z,11480
2017-09-10T13:08:34.428Z,10144
2017-09-10T13:09:46.738Z,9812
2017-09-10T13:10:59.067Z,10456
2017-09-10T13:12:11.716Z,10756
2017-09-10T13:13:23.664Z,10760
2017-09-10T13:14:35.928Z,10860
2017-09-10T13:15:48.184Z,9928
2017-09-10T13:17:00.520Z,7356
2017-09-10T13:18:12.802Z,6944
2017-09-10T13:19:25.084Z,7964
2017-09-10T13:20:37.406Z,9096
2017-09-10T13:21:49.683Z,10988
2017-09-10T13:23:01.959Z,13696
2017-09-10T13:24:14.493Z,17888
2017-09-10T13:25:27.150Z,19904
2017-09-10T13:26:38.537Z,18944
2017-09-10T13:27:51.161Z,16232
2017-09-10T13:29:03.690Z,12940
2017-09-10T13:30:16.039Z,10008
2017-09-10T13:31:28.021Z,8340
2017-09-10T13:32:40.262Z,7148
2017-09-10T13:33:52.589Z,6392
2017-09-10T13:35:04.904Z,6180
2017-09-10T13:36:17.449Z,7040
2017-09-10T13:37:30.021Z,7276
2017-09-10T13:38:42.529Z,7196
2017-09-10T13:39:54.835Z,6944
2017-09-10T13:41:07.193Z,6628
2017-09-10T13:42:19.485Z,6484
2017-09-10T13:43:32.104Z,6396
2017-09-10T13:44:44.068Z,6504
2017-09-10T13:45:56.016Z,6512
2017-09-10T13:47:07.653Z,6492
2017-09-10T13:48:20.262Z,6704
2017-09-10T13:49:32.545Z,6420
2017-09-10T13:50:45.124Z,6292
2017-09-10T13:51:57.411Z,6184
2017-09-10T13:53:09.039Z,6004
2017-09-10T13:54:21.595Z,5936
2017-09-10T13:55:33.923Z,5848
2017-09-10T13:56:46.526Z,5756
2017-09-10T13:57:58.814Z,5712
2017-09-10T13:59:11.049Z,5648
2017-09-10T14:00:22.755Z,5116
2017-09-10T14:01:35.049Z,5808
2017-09-10T14:02:47.382Z,6456
2017-09-10T14:03:59.628Z,6916
2017-09-10T14:05:11.896Z,7008
2017-09-10T14:06:24.498Z,6880
2017-09-10T14:07:37.104Z,7788
2017-09-10T14:08:49.418Z,8184
2017-09-10T14:10:02.014Z,8764
2017-09-10T14:11:14.306Z,8888
2017-09-10T14:12:26.947Z,10060
2017-09-10T14:13:39.325Z,11812
2017-09-10T14:14:51.602Z,12340
2017-09-10T14:16:04.165Z,11432
2017-09-10T14:17:16.794Z,10408
2017-09-10T14:18:29.597Z,9928
2017-09-10T14:19:41.897Z,9904
2017-09-10T14:20:54.413Z,9456
2017-09-10T14:22:06.444Z,9112
2017-09-10T14:23:18.736Z,8884
2017-09-10T14:24:31.051Z,8608
2017-09-10T14:25:42.963Z,8636
2017-09-10T14:26:55.546Z,9072
2017-09-10T14:28:06.943Z,9884
2017-09-10T14:29:18.975Z,10704
2017-09-10T14:30:31.581Z,10952
2017-09-10T14:31:43.536Z,10108
2017-09-10T14:32:55.826Z,9192
2017-09-10T14:34:08.098Z,8316
2017-09-10T14:35:20.373Z,7732
2017-09-10T14:36:32.932Z,7368
2017-09-10T14:37:45.567Z,6652
2017-09-10T14:38:58.173Z,7188
2017-09-10T14:40:10.766Z,8156
2017-09-10T14:41:23.343Z,10800
2017-09-10T14:42:35.984Z,13832
2017-09-10T14:43:47.932Z,14868
2017-09-10T14:45:00.477Z,13624
2017-09-10T14:46:12.126Z,12796
2017-09-10T14:47:24.674Z,11376
2017-09-10T14:48:37.289Z,10000
2017-09-10T14:49:49.546Z,9172
2017-09-10T14:51:02.079Z,8168
2017-09-10T14:52:14.725Z,8300
2017-09-10T14:53:26.685Z,9648
2017-09-10T14:54:39.340Z,10288
2017-09-10T14:55:51.004Z,10400
2017-09-10T14:57:02.984Z,10964
2017-09-10T14:58:15.567Z,11456
2017-09-10T14:59:27.848Z,10868
2017-09-10T15:00:40.120Z,9968
2017-09-10T15:01:52.716Z,9384
2017-09-10T15:03:05.067Z,9236
2017-09-10T15:04:17.332Z,9200
2017-09-10T15:05:29.928Z,8708
2017-09-10T15:06:42.486Z,8752
2017-09-10T15:07:55.072Z,8976
2017-09-10T15:09:07.354Z,9236
2017-09-10T15:10:19.611Z,9752
2017-09-10T15:11:32.267Z,9820
2017-09-10T15:12:44.580Z,9796
2017-09-10T15:13:57.172Z,9728
2017-09-10T15:15:09.454Z,9672
2017-09-10T15:16:22.022Z,9364
2017-09-10T15:17:34.334Z,8432
2017-09-10T15:18:46.868Z,7632
2017-09-10T15:19:59.462Z,6892
2017-09-10T15:21:11.720Z,6332
2017-09-10T15:22:23.942Z,6036
2017-09-10T15:23:36.487Z,5844
2017-09-10T15:24:49.099Z,5460
2017-09-10T15:26:01.060Z,5492
2017-09-10T15:27:13.441Z,5316
2017-09-10T15:28:25.696Z,5368
2017-09-10T15:29:38.314Z,5536
2017-09-10T15:30:50.916Z,5308
2017-09-10T15:32:03.233Z,4700
2017-09-10T15:33:15.781Z,4204
2017-09-10T15:34:27.719Z,4012
2017-09-10T15:35:40.248Z,4508
2017-09-10T15:36:52.524Z,5188
2017-09-10T15:38:04.563Z,5148
2017-09-10T15:39:17.167Z,4780
2017-09-10T15:40:29.812Z,4556
2017-09-10T15:41:42.447Z,4328
2017-09-10T15:42:55.023Z,4060
2017-09-10T15:44:07.264Z,3948
2017-09-10T15:45:19.776Z,3888
2017-09-10T15:46:32.037Z,4068
2017-09-10T15:47:44.342Z,4264
2017-09-10T15:48:56.932Z,4364
2017-09-10T15:50:09.220Z,4324
2017-09-10T15:51:21.549Z,4092
2017-09-10T15:52:34.164Z,3732
2017-09-10T15:53:46.464Z,3468
2017-09-10T15:54:58.703Z,3324
2017-09-10T15:56:10.693Z,3240
2017-09-10T15:57:22.933Z,3208
2017-09-10T15:58:35.522Z,3084
2017-09-10T15:59:46.874Z,3164
2017-09-10T16:00:59.169Z,3104
2017-09-10T16:02:11.450Z,3032
2017-09-10T16:03:24.018Z,2988
2017-09-10T16:04:36.307Z,3024
2017-09-10T16:05:48.335Z,2992
2017-09-10T16:07:00.956Z,2816
2017-09-10T16:08:12.583Z,2752
2017-09-10T16:09:24.828Z,2708
2017-09-10T16:10:37.432Z,2700
2017-09-10T16:11:50.090Z,2696
2017-09-10T16:13:02.399Z,2832
2017-09-10T16:14:14.631Z,2808
2017-09-10T16:15:26.943Z,2780
2017-09-10T16:16:39.196Z,2744
2017-09-10T16:17:51.523Z,2728